Reykjavik, Iceland
Current Conditions -  °F | °C
As of 9:00 AM on Friday 28 Nov 2014 (Local Time) from BIRK Reporting Station
Broken Clouds Broken Clouds  
Wind Chill: 40°   Ceiling: 6500
Heat Index: 48°   Visibility: 6mi
Dew Point: 41°   Wind: 26mph
Humidity: 76%   Direction: 140°SE
Pressure: 29.5"   Gusts: NA
Location:  64.14°N, 21.92°W
Report Text: BIRK 280900Z 14023KT 9999 FEW024 SCT048 BKN065 09/05 Q0999
Loading
Personal Weather Stations






























Interactive Weather Map New forecast layout! Learn more

10-Day Weather Forecast

Advertisements
Track Severe Weather on mobile